Un Akdeniz — TCTD2 — position and weather

sailwx.info

Track history (hours):
 
Tides and Currents Weather Stations Pressure Air Temp Water Temp Dewpoint Dewpoint Depression Visibility Wind Speed Wind Dir Waves Ship Positions

Un Akdeniz

Last reported at 2015-May-29 15:07 UTC. Time now 2015-May-30 02:35 UTC.
Position N 38°58' E 019°36'.

Length 193 m; draft 6.1 m.

Type: Ship (hazmat cat A). MMSI: 271002572.

Date/timePositionNaut miles runAvg speedWind from/ knotsBaromVisibWave heightAir tempDewpointWater temp
2015-May-29 15:07N 38°58' E 019°36'1221.0
2015-May-29 14:33N 39°08' E 019°28'2120.7
2015-May-29 13:32N 39°26' E 019°13'2020.9
2015-May-29 12:34N 39°43' E 018°59'  
2015-May-26 18:20N 40°29' E 018°37'1518.9
2015-May-26 17:33N 40°16' E 018°46'2018.8
2015-May-26 16:30N 39°59' E 018°59'1818.7
2015-May-26 15:33N 39°43' E 019°10'1918.9
2015-May-26 14:33N 39°27' E 019°22'1919.0
2015-May-26 13:33N 39°10' E 019°34'23413.7
2015-May-25 20:33N 37°23' E 023°59'2619.3
2015-May-25 19:13N 37°44' E 024°17'26517.6
2015-May-25 04:09N 40°51' E 028°21'1319.4
2015-May-25 03:29N 40°52' E 028°38'1818.9
2015-May-25 02:33N 40°49' E 029°01'12 9.2
2015-May-25 01:16N 40°51' E 029°16'0 0.0
2015-May-25 00:25N 40°51' E 029°16'0 0.0
2015-May-24 23:16N 40°51' E 029°16'0 0.0
2015-May-24 22:27N 40°51' E 029°16'0 0.0
2015-May-24 20:08N 40°51' E 029°16'0 0.0
2015-May-24 19:26N 40°51' E 029°16'0 0.0
2015-May-24 18:31N 40°51' E 029°16'0 0.0
2015-May-24 17:25N 40°51' E 029°16'0 0.0
2015-May-24 16:19N 40°51' E 029°16'0 0.0
2015-May-24 15:30N 40°51' E 029°16'0 0.0
2015-May-24 14:32N 40°51' E 029°16'1 1.2
2015-May-24 13:34N 40°51' E 029°15'1918.0
2015-May-24 12:32N 40°47' E 028°51'2619.2
2015-May-24 11:11N 40°45' E 028°17'12816.3
2015-May-24 03:18N 39°44' E 025°49'3820.0
2015-May-24 01:26N 39°11' E 025°26'3820.0
2015-May-23 23:30N 38°37' E 025°04'4519.9
2015-May-23 21:16N 37°57' E 024°38'1519.9
2015-May-23 20:32N 37°43' E 024°31'3919.6
2015-May-23 18:33N 37°12' E 024°03'2020.0
2015-May-23 17:33N 36°56' E 023°47'2020.0
2015-May-23 16:33N 36°40' E 023°32'2219.7
2015-May-23 15:27N 36°24' E 023°13'1819.7
2015-May-23 14:33N 36°24' E 022°51'2019.9
2015-May-23 13:31N 36°22' E 022°26'31919.8
2015-May-22 21:23N 37°48' E 016°01'1620.0
2015-May-22 20:33N 37°53' E 015°41'1818.3
2015-May-22 19:33N 38°10' E 015°36'1313.4
2015-May-22 18:34N 38°24' E 015°33'2020.2
2015-May-22 17:34N 38°37' E 015°14'2020.0
2015-May-22 16:33N 38°49' E 014°53'47919.2
2015-May-21 15:33N 43°05' E 005°57'3 2.7
2015-May-21 14:33N 43°06' E 005°54'0 0.0
2015-May-21 13:34N 43°06' E 005°54'0 0.0
2015-May-21 12:34N 43°06' E 005°54'0 0.0
2015-May-21 11:34N 43°06' E 005°54'0 0.0
2015-May-21 10:33N 43°06' E 005°54'0 0.0
2015-May-21 09:33N 43°06' E 005°54'0 0.0
2015-May-21 08:34N 43°06' E 005°54'0 0.0
2015-May-21 07:33N 43°06' E 005°54'0 0.0
2015-May-21 06:34N 43°06' E 005°54'0 0.0
2015-May-21 05:34N 43°06' E 005°54'0 0.2
2015-May-21 04:34N 43°06' E 005°54'8 7.9
2015-May-21 03:33N 43°02' E 006°03'14015.6
2015-May-20 18:33N 43°13' E 009°15'1615.9
2015-May-20 17:31N 43°06' E 009°35'1717.4
2015-May-20 16:33N 42°51' E 009°43'14117.2
2015-May-20 08:20N 41°05' E 011°49'1312.1
2015-May-20 07:14N 40°56' E 012°01'812.2
2015-May-20 06:33N 40°50' E 012°09'1211.9
2015-May-20 05:33N 40°42' E 012°20'1212.2
2015-May-20 04:33N 40°33' E 012°32'1212.1
2015-May-20 03:33N 40°25' E 012°44'1212.0
2015-May-20 02:33N 40°17' E 012°55'1212.0
2015-May-20 01:33N 40°08' E 013°07'1212.1
2015-May-20 00:33N 40°00' E 013°18'1212.0
2015-May-19 23:33N 39°52' E 013°29'1212.0
2015-May-19 22:33N 39°44' E 013°41'1211.7
2015-May-19 21:33N 39°36' E 013°52'1111.3
2015-May-19 20:33N 39°28' E 014°03'1311.6
2015-May-19 19:28N 39°20' E 014°15'2412.0
2015-May-19 17:26N 39°03' E 014°37'1313.0
2015-May-19 16:26N 38°54' E 014°50'1719.2
2015-May-19 15:33N 38°45' E 015°08'  
Track history (hours):
 
Tides and Currents Weather Stations Pressure Air Temp Water Temp Dewpoint Dewpoint Depression Visibility Wind Speed Wind Dir Waves Ship Positions

Un Akdeniz

Last reported at 2015-May-29 15:07 UTC. Time now 2015-May-30 02:35 UTC.
Position N 38°58' E 019°36'.

Length 193 m; draft 6.1 m.

Type: Ship (hazmat cat A). MMSI: 271002572.

Date/timePositionNaut miles runAvg speedWind from/ knotsBaromVisibWave heightAir tempDewpointWater temp
2015-May-29 15:07N 38°58' E 019°36'1221.0
2015-May-29 14:33N 39°08' E 019°28'2120.7
2015-May-29 13:32N 39°26' E 019°13'2020.9
2015-May-29 12:34N 39°43' E 018°59'  
2015-May-26 18:20N 40°29' E 018°37'1518.9
2015-May-26 17:33N 40°16' E 018°46'2018.8
2015-May-26 16:30N 39°59' E 018°59'1818.7
2015-May-26 15:33N 39°43' E 019°10'1918.9
2015-May-26 14:33N 39°27' E 019°22'1919.0
2015-May-26 13:33N 39°10' E 019°34'23413.7
2015-May-25 20:33N 37°23' E 023°59'2619.3
2015-May-25 19:13N 37°44' E 024°17'26517.6
2015-May-25 04:09N 40°51' E 028°21'1319.4
2015-May-25 03:29N 40°52' E 028°38'1818.9
2015-May-25 02:33N 40°49' E 029°01'12 9.2
2015-May-25 01:16N 40°51' E 029°16'0 0.0
2015-May-25 00:25N 40°51' E 029°16'0 0.0
2015-May-24 23:16N 40°51' E 029°16'0 0.0
2015-May-24 22:27N 40°51' E 029°16'0 0.0
2015-May-24 20:08N 40°51' E 029°16'0 0.0
2015-May-24 19:26N 40°51' E 029°16'0 0.0
2015-May-24 18:31N 40°51' E 029°16'0 0.0
2015-May-24 17:25N 40°51' E 029°16'0 0.0
2015-May-24 16:19N 40°51' E 029°16'0 0.0
2015-May-24 15:30N 40°51' E 029°16'0 0.0
2015-May-24 14:32N 40°51' E 029°16'1 1.2
2015-May-24 13:34N 40°51' E 029°15'1918.0
2015-May-24 12:32N 40°47' E 028°51'2619.2
2015-May-24 11:11N 40°45' E 028°17'12816.3
2015-May-24 03:18N 39°44' E 025°49'3820.0
2015-May-24 01:26N 39°11' E 025°26'3820.0
2015-May-23 23:30N 38°37' E 025°04'4519.9
2015-May-23 21:16N 37°57' E 024°38'1519.9
2015-May-23 20:32N 37°43' E 024°31'3919.6
2015-May-23 18:33N 37°12' E 024°03'2020.0
2015-May-23 17:33N 36°56' E 023°47'2020.0
2015-May-23 16:33N 36°40' E 023°32'2219.7
2015-May-23 15:27N 36°24' E 023°13'1819.7
2015-May-23 14:33N 36°24' E 022°51'2019.9
2015-May-23 13:31N 36°22' E 022°26'31919.8
2015-May-22 21:23N 37°48' E 016°01'1620.0
2015-May-22 20:33N 37°53' E 015°41'1818.3
2015-May-22 19:33N 38°10' E 015°36'1313.4
2015-May-22 18:34N 38°24' E 015°33'2020.2
2015-May-22 17:34N 38°37' E 015°14'2020.0
2015-May-22 16:33N 38°49' E 014°53'47919.2
2015-May-21 15:33N 43°05' E 005°57'3 2.7
2015-May-21 14:33N 43°06' E 005°54'0 0.0
2015-May-21 13:34N 43°06' E 005°54'0 0.0
2015-May-21 12:34N 43°06' E 005°54'0 0.0
2015-May-21 11:34N 43°06' E 005°54'0 0.0
2015-May-21 10:33N 43°06' E 005°54'0 0.0
2015-May-21 09:33N 43°06' E 005°54'0 0.0
2015-May-21 08:34N 43°06' E 005°54'0 0.0
2015-May-21 07:33N 43°06' E 005°54'0 0.0
2015-May-21 06:34N 43°06' E 005°54'0 0.0
2015-May-21 05:34N 43°06' E 005°54'0 0.2
2015-May-21 04:34N 43°06' E 005°54'8 7.9
2015-May-21 03:33N 43°02' E 006°03'14015.6
2015-May-20 18:33N 43°13' E 009°15'1615.9
2015-May-20 17:31N 43°06' E 009°35'1717.4
2015-May-20 16:33N 42°51' E 009°43'14117.2
2015-May-20 08:20N 41°05' E 011°49'1312.1
2015-May-20 07:14N 40°56' E 012°01'812.2
2015-May-20 06:33N 40°50' E 012°09'1211.9
2015-May-20 05:33N 40°42' E 012°20'1212.2
2015-May-20 04:33N 40°33' E 012°32'1212.1
2015-May-20 03:33N 40°25' E 012°44'1212.0
2015-May-20 02:33N 40°17' E 012°55'1212.0
2015-May-20 01:33N 40°08' E 013°07'1212.1
2015-May-20 00:33N 40°00' E 013°18'1212.0
2015-May-19 23:33N 39°52' E 013°29'1212.0
2015-May-19 22:33N 39°44' E 013°41'1211.7
2015-May-19 21:33N 39°36' E 013°52'1111.3
2015-May-19 20:33N 39°28' E 014°03'1311.6
2015-May-19 19:28N 39°20' E 014°15'2412.0
2015-May-19 17:26N 39°03' E 014°37'1313.0
2015-May-19 16:26N 38°54' E 014°50'1719.2
2015-May-19 15:33N 38°45' E 015°08'  

Dump ship's entire track history